Airfield :
LOGIN :

Register | Disclaimer

   EN    FR    IT 

 










Legend :    VFR   Marginal VFR   IFR   Intensive IFR   Very Intensive IFR
Visi :
Ceiling :
>= 8 km
>= 3000ft
5 to 8 km
1000 to 3000 ft
1500m to 5 km
500 to 1000 ft
800 to 1500m
200 to 500 ft
< 800m
< 200 ft
Symbols :   Thunderstorms  Fog  Heavy snow  Heavy precipitations  Wind > 20 kt
SIGMETs :     Misc.  Thunderstorms  Icing  Turbulence  Mountain Waves  Volcanic Ashes






- Airport Elevation : 3 ft
- IATA code : DHR


EHKD - Den Helder De Kooy

CURRENT METAR :
  • 202355Z AUTO 23014KT 200V260 9999 FEW015CB SCT037 OVC041 13/11 Q1016 BLU

EXPIRED METARs :
  • 202325Z AUTO 23014KT 190V260 9999 -RA FEW024 BKN046 OVC053 13/11 Q1016 BLU
  • 202255Z AUTO 23014KT 200V260 9999 FEW039 BKN060 BKN066 13/11 Q1016 BLU
  • 202225Z AUTO 23011KT 200V260 9999 FEW053 SCT073 OVC079 13/11 Q1016 BLU
  • 202155Z AUTO 23010KT 200V260 9999 BKN057 12/10 Q1017 BLU
  • 202125Z AUTO 24009KT 220V280 9999 NCD 11/10 Q1016 BLU

TAF TAF EHKD
Valid from the 20 at 21:00 until the 21 at 09:00 UTC


202023Z 2021/2109 23015KT 9999 SCT030
BECMG 2023/2101 27017G28KT SCT017 BKN025
TEMPO 2023/2102 4500 RADZ -SHRA SCT008 BKN012 FEW020CB



MET'MAP, your aeronautical weather chart ! - Copyright ORBIFLY December 2007 - Disclaimer

ORBIFLY MET'MAP TEAM :

Programming & Development : Alexandra Zaïnal
Original concept : Baudouin d'Aumeries
Technical & hardware support : Manuel Goepfert
Assistance : Marc-Olivier Méhu

Contact : metmap@orbifly.com




SOURCES & CREDITS :

   NOAA